sensor_id;sensor_type;location;lat;lon;timestamp;P1;durP1;ratioP1;P2;durP2;ratioP2
20567;SDS011;10442;49.932;11.592;2022-09-20T00:01:27;1.77;;;1.52;;
20567;SDS011;10442;49.932;11.592;2022-09-20T00:03:59;2.75;;;2.55;;
20567;SDS011;10442;49.932;11.592;2022-09-20T00:06:28;2.55;;;2.35;;
20567;SDS011;10442;49.932;11.592;2022-09-20T00:08:57;2.38;;;2.10;;
20567;SDS011;10442;49.932;11.592;2022-09-20T00:11:28;2.20;;;2.03;;
20567;SDS011;10442;49.932;11.592;2022-09-20T00:13:58;2.50;;;2.30;;
20567;SDS011;10442;49.932;11.592;2022-09-20T00:16:28;1.98;;;1.88;;
20567;SDS011;10442;49.932;11.592;2022-09-20T00:18:58;2.92;;;2.72;;
20567;SDS011;10442;49.932;11.592;2022-09-20T00:21:27;2.85;;;2.60;;
20567;SDS011;10442;49.932;11.592;2022-09-20T00:23:56;2.88;;;1.95;;
20567;SDS011;10442;49.932;11.592;2022-09-20T00:26:25;2.72;;;2.28;;
20567;SDS011;10442;49.932;11.592;2022-09-20T00:28:54;2.45;;;2.30;;
20567;SDS011;10442;49.932;11.592;2022-09-20T00:31:24;1.63;;;1.52;;
20567;SDS011;10442;49.932;11.592;2022-09-20T00:33:53;3.75;;;1.90;;
20567;SDS011;10442;49.932;11.592;2022-09-20T00:36:40;2.03;;;1.92;;
20567;SDS011;10442;49.932;11.592;2022-09-20T00:39:09;2.13;;;2.03;;
20567;SDS011;10442;49.932;11.592;2022-09-20T00:41:38;2.15;;;2.05;;
20567;SDS011;10442;49.932;11.592;2022-09-20T00:44:38;2.38;;;2.17;;
20567;SDS011;10442;49.932;11.592;2022-09-20T00:47:12;2.38;;;1.58;;
20567;SDS011;10442;49.932;11.592;2022-09-20T00:49:45;1.75;;;1.65;;
20567;SDS011;10442;49.932;11.592;2022-09-20T00:52:13;2.17;;;2.00;;
20567;SDS011;10442;49.932;11.592;2022-09-20T00:54:41;2.05;;;1.90;;
20567;SDS011;10442;49.932;11.592;2022-09-20T00:57:08;1.75;;;1.65;;
20567;SDS011;10442;49.932;11.592;2022-09-20T00:59:37;1.70;;;1.60;;
20567;SDS011;10442;49.932;11.592;2022-09-20T01:02:12;2.08;;;1.98;;
20567;SDS011;10442;49.932;11.592;2022-09-20T01:04:43;2.37;;;2.23;;
20567;SDS011;10442;49.932;11.592;2022-09-20T01:07:15;2.88;;;1.95;;
20567;SDS011;10442;49.932;11.592;2022-09-20T01:09:44;2.28;;;2.08;;
20567;SDS011;10442;49.932;11.592;2022-09-20T01:12:13;2.33;;;2.08;;
20567;SDS011;10442;49.932;11.592;2022-09-20T01:14:49;1.73;;;1.63;;
20567;SDS011;10442;49.932;11.592;2022-09-20T01:17:18;2.35;;;1.50;;
20567;SDS011;10442;49.932;11.592;2022-09-20T01:28:27;1.77;;;1.67;;
20567;SDS011;10442;49.932;11.592;2022-09-20T01:31:06;3.78;;;1.83;;
20567;SDS011;10442;49.932;11.592;2022-09-20T01:34:00;1.98;;;1.83;;
20567;SDS011;10442;49.932;11.592;2022-09-20T01:36:43;1.60;;;1.50;;
20567;SDS011;10442;49.932;11.592;2022-09-20T01:39:37;3.40;;;2.13;;
20567;SDS011;10442;49.932;11.592;2022-09-20T01:42:23;1.60;;;1.55;;
20567;SDS011;10442;49.932;11.592;2022-09-20T01:45:02;2.38;;;2.03;;
20567;SDS011;10442;49.932;11.592;2022-09-20T01:50:49;1.90;;;1.80;;
20567;SDS011;10442;49.932;11.592;2022-09-20T01:59:18;1.58;;;1.48;;
20567;SDS011;10442;49.932;11.592;2022-09-20T02:02:57;1.92;;;1.83;;
20567;SDS011;10442;49.932;11.592;2022-09-20T02:08:14;2.13;;;1.92;;
20567;SDS011;10442;49.932;11.592;2022-09-20T02:22:04;2.05;;;1.95;;
20567;SDS011;10442;49.932;11.592;2022-09-20T02:30:11;3.90;;;1.80;;
20567;SDS011;10442;49.932;11.592;2022-09-20T02:35:29;1.65;;;1.55;;
20567;SDS011;10442;49.932;11.592;2022-09-20T02:38:27;3.67;;;2.33;;
20567;SDS011;10442;49.932;11.592;2022-09-20T02:44:11;3.25;;;1.77;;
20567;SDS011;10442;49.932;11.592;2022-09-20T02:46:50;1.85;;;1.48;;
20567;SDS011;10442;49.932;11.592;2022-09-20T02:55:45;2.22;;;1.95;;
20567;SDS011;10442;49.932;11.592;2022-09-20T03:01:27;1.75;;;1.60;;
20567;SDS011;10442;49.932;11.592;2022-09-20T03:07:33;2.15;;;2.03;;
20567;SDS011;10442;49.932;11.592;2022-09-20T03:18:28;1.75;;;1.48;;
20567;SDS011;10442;49.932;11.592;2022-09-20T03:21:14;1.85;;;1.65;;
20567;SDS011;10442;49.932;11.592;2022-09-20T03:29:38;3.50;;;2.20;;
20567;SDS011;10442;49.932;11.592;2022-09-20T03:32:35;1.38;;;1.33;;
20567;SDS011;10442;49.932;11.592;2022-09-20T03:46:27;2.35;;;1.65;;
20567;SDS011;10442;49.932;11.592;2022-09-20T03:52:01;2.37;;;2.17;;
20567;SDS011;10442;49.932;11.592;2022-09-20T04:01:00;1.58;;;1.48;;
20567;SDS011;10442;49.932;11.592;2022-09-20T04:03:52;2.23;;;1.90;;
20567;SDS011;10442;49.932;11.592;2022-09-20T04:09:39;3.28;;;1.63;;
20567;SDS011;10442;49.932;11.592;2022-09-20T04:12:25;2.13;;;1.40;;
20567;SDS011;10442;49.932;11.592;2022-09-20T04:18:08;2.10;;;1.73;;
20567;SDS011;10442;49.932;11.592;2022-09-20T04:20:49;2.00;;;1.50;;
20567;SDS011;10442;49.932;11.592;2022-09-20T04:26:19;1.75;;;1.45;;
20567;SDS011;10442;49.932;11.592;2022-09-20T04:29:10;2.63;;;1.80;;
20567;SDS011;10442;49.932;11.592;2022-09-20T04:37:47;2.08;;;1.80;;
20567;SDS011;10442;49.932;11.592;2022-09-20T04:40:36;3.67;;;1.97;;
20567;SDS011;10442;49.932;11.592;2022-09-20T04:52:11;2.45;;;1.63;;
20567;SDS011;10442;49.932;11.592;2022-09-20T04:55:06;1.73;;;1.30;;
20567;SDS011;10442;49.932;11.592;2022-09-20T05:00:47;2.33;;;1.88;;
20567;SDS011;10442;49.932;11.592;2022-09-20T05:06:59;4.13;;;1.83;;
20567;SDS011;10442;49.932;11.592;2022-09-20T05:17:48;3.97;;;2.72;;
20567;SDS011;10442;49.932;11.592;2022-09-20T05:20:40;3.35;;;1.92;;
20567;SDS011;10442;49.932;11.592;2022-09-20T05:23:37;3.00;;;1.60;;
20567;SDS011;10442;49.932;11.592;2022-09-20T05:29:13;3.05;;;2.20;;
20567;SDS011;10442;49.932;11.592;2022-09-20T05:37:27;2.72;;;2.53;;
20567;SDS011;10442;49.932;11.592;2022-09-20T05:43:13;5.18;;;2.40;;
20567;SDS011;10442;49.932;11.592;2022-09-20T05:46:12;3.08;;;2.03;;
20567;SDS011;10442;49.932;11.592;2022-09-20T05:48:57;3.40;;;1.87;;
20567;SDS011;10442;49.932;11.592;2022-09-20T05:54:45;3.03;;;2.33;;
20567;SDS011;10442;49.932;11.592;2022-09-20T05:57:45;3.33;;;2.17;;
20567;SDS011;10442;49.932;11.592;2022-09-20T06:00:31;3.40;;;1.85;;
20567;SDS011;10442;49.932;11.592;2022-09-20T06:03:26;2.45;;;2.25;;
20567;SDS011;10442;49.932;11.592;2022-09-20T06:14:50;2.33;;;1.40;;
20567;SDS011;10442;49.932;11.592;2022-09-20T06:17:42;5.32;;;2.47;;
20567;SDS011;10442;49.932;11.592;2022-09-20T06:20:35;2.50;;;1.38;;
20567;SDS011;10442;49.932;11.592;2022-09-20T06:23:11;3.80;;;1.60;;
20567;SDS011;10442;49.932;11.592;2022-09-20T06:25:41;4.65;;;1.50;;
20567;SDS011;10442;49.932;11.592;2022-09-20T06:28:15;1.85;;;1.27;;
20567;SDS011;10442;49.932;11.592;2022-09-20T06:30:46;2.30;;;2.03;;
20567;SDS011;10442;49.932;11.592;2022-09-20T06:33:21;4.18;;;1.98;;
20567;SDS011;10442;49.932;11.592;2022-09-20T06:42:13;3.17;;;2.85;;
20567;SDS011;10442;49.932;11.592;2022-09-20T06:44:40;3.15;;;2.00;;
20567;SDS011;10442;49.932;11.592;2022-09-20T06:47:09;4.85;;;4.00;;
20567;SDS011;10442;49.932;11.592;2022-09-20T06:49:38;9.70;;;3.20;;
20567;SDS011;10442;49.932;11.592;2022-09-20T06:52:12;3.42;;;2.22;;
20567;SDS011;10442;49.932;11.592;2022-09-20T06:54:41;5.03;;;1.70;;
20567;SDS011;10442;49.932;11.592;2022-09-20T06:57:12;3.83;;;1.92;;
20567;SDS011;10442;49.932;11.592;2022-09-20T06:59:42;4.55;;;1.77;;
20567;SDS011;10442;49.932;11.592;2022-09-20T07:02:10;2.08;;;1.48;;
20567;SDS011;10442;49.932;11.592;2022-09-20T07:04:38;5.82;;;1.73;;
20567;SDS011;10442;49.932;11.592;2022-09-20T07:07:06;4.07;;;1.73;;
20567;SDS011;10442;49.932;11.592;2022-09-20T07:09:35;1.90;;;1.55;;
20567;SDS011;10442;49.932;11.592;2022-09-20T07:12:03;2.67;;;1.58;;
20567;SDS011;10442;49.932;11.592;2022-09-20T07:14:30;3.03;;;1.60;;
20567;SDS011;10442;49.932;11.592;2022-09-20T07:16:57;6.95;;;1.98;;
20567;SDS011;10442;49.932;11.592;2022-09-20T07:19:25;2.42;;;1.48;;
20567;SDS011;10442;49.932;11.592;2022-09-20T07:21:52;2.22;;;1.80;;
20567;SDS011;10442;49.932;11.592;2022-09-20T07:24:20;11.77;;;1.55;;
20567;SDS011;10442;49.932;11.592;2022-09-20T07:26:55;4.05;;;2.03;;
20567;SDS011;10442;49.932;11.592;2022-09-20T07:29:24;2.90;;;1.00;;
20567;SDS011;10442;49.932;11.592;2022-09-20T07:31:53;2.25;;;1.33;;
20567;SDS011;10442;49.932;11.592;2022-09-20T07:34:21;3.47;;;2.13;;
20567;SDS011;10442;49.932;11.592;2022-09-20T07:36:49;2.72;;;1.40;;
20567;SDS011;10442;49.932;11.592;2022-09-20T07:39:17;2.22;;;1.25;;
20567;SDS011;10442;49.932;11.592;2022-09-20T07:41:45;3.05;;;1.35;;
20567;SDS011;10442;49.932;11.592;2022-09-20T07:44:16;3.45;;;1.40;;
20567;SDS011;10442;49.932;11.592;2022-09-20T07:46:48;3.75;;;2.03;;
20567;SDS011;10442;49.932;11.592;2022-09-20T07:49:26;2.75;;;1.30;;
20567;SDS011;10442;49.932;11.592;2022-09-20T07:51:57;3.30;;;1.40;;
20567;SDS011;10442;49.932;11.592;2022-09-20T07:54:24;2.00;;;1.52;;
20567;SDS011;10442;49.932;11.592;2022-09-20T07:56:53;1.65;;;1.40;;
20567;SDS011;10442;49.932;11.592;2022-09-20T07:59:20;6.65;;;1.55;;
20567;SDS011;10442;49.932;11.592;2022-09-20T08:01:48;4.95;;;1.60;;
20567;SDS011;10442;49.932;11.592;2022-09-20T08:04:15;3.13;;;1.58;;
20567;SDS011;10442;49.932;11.592;2022-09-20T08:06:43;6.07;;;3.72;;
20567;SDS011;10442;49.932;11.592;2022-09-20T08:09:12;9.77;;;6.07;;
20567;SDS011;10442;49.932;11.592;2022-09-20T08:11:40;4.72;;;3.00;;
20567;SDS011;10442;49.932;11.592;2022-09-20T08:14:12;8.75;;;4.90;;
20567;SDS011;10442;49.932;11.592;2022-09-20T08:16:45;1.45;;;1.30;;
20567;SDS011;10442;49.932;11.592;2022-09-20T08:19:18;3.95;;;1.73;;
20567;SDS011;10442;49.932;11.592;2022-09-20T08:21:48;3.92;;;1.67;;
20567;SDS011;10442;49.932;11.592;2022-09-20T08:24:17;2.72;;;1.30;;
20567;SDS011;10442;49.932;11.592;2022-09-20T08:26:45;2.55;;;1.63;;
20567;SDS011;10442;49.932;11.592;2022-09-20T08:29:14;4.70;;;2.70;;
20567;SDS011;10442;49.932;11.592;2022-09-20T08:31:42;4.25;;;2.88;;
20567;SDS011;10442;49.932;11.592;2022-09-20T08:34:10;6.07;;;2.08;;
20567;SDS011;10442;49.932;11.592;2022-09-20T08:36:40;4.15;;;1.67;;
20567;SDS011;10442;49.932;11.592;2022-09-20T08:39:12;2.60;;;1.60;;
20567;SDS011;10442;49.932;11.592;2022-09-20T08:42:34;3.25;;;1.23;;
20567;SDS011;10442;49.932;11.592;2022-09-20T08:45:10;2.90;;;1.55;;
20567;SDS011;10442;49.932;11.592;2022-09-20T08:48:01;3.70;;;2.42;;
20567;SDS011;10442;49.932;11.592;2022-09-20T08:50:31;4.03;;;1.90;;
20567;SDS011;10442;49.932;11.592;2022-09-20T08:53:02;4.03;;;1.40;;
20567;SDS011;10442;49.932;11.592;2022-09-20T08:55:30;1.55;;;1.45;;
20567;SDS011;10442;49.932;11.592;2022-09-20T08:58:09;3.17;;;1.70;;
20567;SDS011;10442;49.932;11.592;2022-09-20T09:00:40;4.18;;;2.28;;
20567;SDS011;10442;49.932;11.592;2022-09-20T09:03:12;14.65;;;8.02;;
20567;SDS011;10442;49.932;11.592;2022-09-20T09:08:12;3.53;;;1.27;;
20567;SDS011;10442;49.932;11.592;2022-09-20T09:10:46;7.72;;;1.77;;
20567;SDS011;10442;49.932;11.592;2022-09-20T09:13:43;3.38;;;1.55;;
20567;SDS011;10442;49.932;11.592;2022-09-20T09:16:29;4.65;;;1.90;;
20567;SDS011;10442;49.932;11.592;2022-09-20T09:22:03;2.03;;;1.63;;
20567;SDS011;10442;49.932;11.592;2022-09-20T09:24:32;3.83;;;1.45;;
20567;SDS011;10442;49.932;11.592;2022-09-20T09:27:13;3.30;;;1.70;;
20567;SDS011;10442;49.932;11.592;2022-09-20T09:29:54;2.50;;;1.77;;
20567;SDS011;10442;49.932;11.592;2022-09-20T09:32:26;4.43;;;1.58;;
20567;SDS011;10442;49.932;11.592;2022-09-20T09:37:59;4.15;;;2.15;;
20567;SDS011;10442;49.932;11.592;2022-09-20T09:40:28;4.78;;;1.77;;
20567;SDS011;10442;49.932;11.592;2022-09-20T09:42:59;2.08;;;1.45;;
20567;SDS011;10442;49.932;11.592;2022-09-20T09:45:30;2.25;;;1.92;;
20567;SDS011;10442;49.932;11.592;2022-09-20T09:48:03;2.03;;;1.77;;
20567;SDS011;10442;49.932;11.592;2022-09-20T09:50:49;2.65;;;2.10;;
20567;SDS011;10442;49.932;11.592;2022-09-20T09:53:22;2.13;;;1.80;;
20567;SDS011;10442;49.932;11.592;2022-09-20T10:01:09;3.33;;;1.88;;
20567;SDS011;10442;49.932;11.592;2022-09-20T10:07:26;1.42;;;1.30;;
20567;SDS011;10442;49.932;11.592;2022-09-20T10:17:53;5.32;;;1.73;;
20567;SDS011;10442;49.932;11.592;2022-09-20T10:38:12;4.00;;;3.05;;
20567;SDS011;10442;49.932;11.592;2022-09-20T10:46:42;1.63;;;1.00;;
20567;SDS011;10442;49.932;11.592;2022-09-20T10:57:44;1.05;;;0.90;;
20567;SDS011;10442;49.932;11.592;2022-09-20T11:00:41;1.10;;;0.85;;
20567;SDS011;10442;49.932;11.592;2022-09-20T11:06:18;0.82;;;0.82;;
20567;SDS011;10442;49.932;11.592;2022-09-20T11:09:06;3.03;;;1.00;;
20567;SDS011;10442;49.932;11.592;2022-09-20T11:11:44;1.20;;;1.10;;
20567;SDS011;10442;49.932;11.592;2022-09-20T11:14:22;3.42;;;1.60;;
20567;SDS011;10442;49.932;11.592;2022-09-20T11:17:02;1.45;;;1.23;;
20567;SDS011;10442;49.932;11.592;2022-09-20T11:19:46;1.67;;;1.40;;
20567;SDS011;10442;49.932;11.592;2022-09-20T11:22:23;0.75;;;0.57;;
20567;SDS011;10442;49.932;11.592;2022-09-20T11:25:01;2.55;;;1.10;;
20567;SDS011;10442;49.932;11.592;2022-09-20T11:30:57;1.73;;;1.13;;
20567;SDS011;10442;49.932;11.592;2022-09-20T11:33:46;1.13;;;1.08;;
20567;SDS011;10442;49.932;11.592;2022-09-20T11:36:21;1.85;;;0.75;;
20567;SDS011;10442;49.932;11.592;2022-09-20T11:41:27;1.70;;;1.13;;
20567;SDS011;10442;49.932;11.592;2022-09-20T11:43:58;2.15;;;1.42;;
20567;SDS011;10442;49.932;11.592;2022-09-20T11:46:31;1.70;;;1.15;;
20567;SDS011;10442;49.932;11.592;2022-09-20T11:49:08;2.85;;;1.30;;
20567;SDS011;10442;49.932;11.592;2022-09-20T11:51:55;4.00;;;1.50;;
20567;SDS011;10442;49.932;11.592;2022-09-20T11:57:32;1.15;;;0.80;;
20567;SDS011;10442;49.932;11.592;2022-09-20T12:00:00;1.90;;;1.40;;
20567;SDS011;10442;49.932;11.592;2022-09-20T12:02:43;2.10;;;0.90;;
20567;SDS011;10442;49.932;11.592;2022-09-20T12:08:26;4.18;;;0.95;;
20567;SDS011;10442;49.932;11.592;2022-09-20T12:11:04;2.38;;;1.15;;
20567;SDS011;10442;49.932;11.592;2022-09-20T12:13:37;1.25;;;1.08;;
20567;SDS011;10442;49.932;11.592;2022-09-20T12:18:45;1.63;;;1.20;;
20567;SDS011;10442;49.932;11.592;2022-09-20T12:21:20;1.30;;;0.98;;
20567;SDS011;10442;49.932;11.592;2022-09-20T12:33:55;1.00;;;0.80;;
20567;SDS011;10442;49.932;11.592;2022-09-20T12:36:31;2.55;;;1.10;;
20567;SDS011;10442;49.932;11.592;2022-09-20T12:41:46;1.52;;;1.02;;
20567;SDS011;10442;49.932;11.592;2022-09-20T12:52:23;2.38;;;1.73;;
20567;SDS011;10442;49.932;11.592;2022-09-20T12:55:28;2.25;;;1.60;;
20567;SDS011;10442;49.932;11.592;2022-09-20T12:58:03;1.48;;;1.05;;
20567;SDS011;10442;49.932;11.592;2022-09-20T13:00:39;1.10;;;1.00;;
20567;SDS011;10442;49.932;11.592;2022-09-20T13:05:48;2.17;;;0.77;;
20567;SDS011;10442;49.932;11.592;2022-09-20T13:11:17;4.00;;;1.25;;
20567;SDS011;10442;49.932;11.592;2022-09-20T13:13:50;1.42;;;0.95;;
20567;SDS011;10442;49.932;11.592;2022-09-20T13:16:44;1.35;;;1.08;;
20567;SDS011;10442;49.932;11.592;2022-09-20T13:25:01;1.33;;;1.10;;
20567;SDS011;10442;49.932;11.592;2022-09-20T13:27:31;1.65;;;0.80;;
20567;SDS011;10442;49.932;11.592;2022-09-20T13:30:28;2.92;;;1.88;;
20567;SDS011;10442;49.932;11.592;2022-09-20T13:35:46;1.40;;;1.30;;
20567;SDS011;10442;49.932;11.592;2022-09-20T13:38:17;1.50;;;0.70;;
20567;SDS011;10442;49.932;11.592;2022-09-20T13:40:51;1.17;;;1.00;;
20567;SDS011;10442;49.932;11.592;2022-09-20T13:43:27;0.77;;;0.57;;
20567;SDS011;10442;49.932;11.592;2022-09-20T13:45:59;0.80;;;0.80;;
20567;SDS011;10442;49.932;11.592;2022-09-20T13:48:32;0.60;;;0.60;;
20567;SDS011;10442;49.932;11.592;2022-09-20T13:51:00;1.33;;;0.90;;
20567;SDS011;10442;49.932;11.592;2022-09-20T13:53:28;4.13;;;1.23;;
20567;SDS011;10442;49.932;11.592;2022-09-20T13:56:15;1.50;;;0.80;;
20567;SDS011;10442;49.932;11.592;2022-09-20T13:58:47;2.45;;;1.23;;
20567;SDS011;10442;49.932;11.592;2022-09-20T14:01:30;0.80;;;0.80;;
20567;SDS011;10442;49.932;11.592;2022-09-20T14:04:02;1.63;;;1.40;;
20567;SDS011;10442;49.932;11.592;2022-09-20T14:06:39;4.20;;;1.15;;
20567;SDS011;10442;49.932;11.592;2022-09-20T14:11:57;0.93;;;0.93;;
20567;SDS011;10442;49.932;11.592;2022-09-20T14:14:25;1.00;;;0.90;;
20567;SDS011;10442;49.932;11.592;2022-09-20T14:16:55;1.75;;;1.00;;
20567;SDS011;10442;49.932;11.592;2022-09-20T14:19:30;1.00;;;1.00;;
20567;SDS011;10442;49.932;11.592;2022-09-20T14:22:03;3.17;;;0.90;;
20567;SDS011;10442;49.932;11.592;2022-09-20T14:24:33;3.72;;;0.80;;
20567;SDS011;10442;49.932;11.592;2022-09-20T14:27:13;1.98;;;1.42;;
20567;SDS011;10442;49.932;11.592;2022-09-20T14:29:52;1.20;;;1.00;;
20567;SDS011;10442;49.932;11.592;2022-09-20T14:32:25;2.60;;;1.42;;
20567;SDS011;10442;49.932;11.592;2022-09-20T14:35:14;1.42;;;1.00;;
20567;SDS011;10442;49.932;11.592;2022-09-20T14:37:48;1.40;;;0.50;;
20567;SDS011;10442;49.932;11.592;2022-09-20T14:40:24;0.52;;;0.52;;
20567;SDS011;10442;49.932;11.592;2022-09-20T14:42:57;0.68;;;0.68;;
20567;SDS011;10442;49.932;11.592;2022-09-20T14:45:30;0.70;;;0.70;;
20567;SDS011;10442;49.932;11.592;2022-09-20T14:53:13;0.73;;;0.73;;
20567;SDS011;10442;49.932;11.592;2022-09-20T14:56:00;0.68;;;0.68;;
20567;SDS011;10442;49.932;11.592;2022-09-20T15:01:31;0.82;;;0.82;;
20567;SDS011;10442;49.932;11.592;2022-09-20T15:04:07;0.93;;;0.82;;
20567;SDS011;10442;49.932;11.592;2022-09-20T15:06:36;1.25;;;0.90;;
20567;SDS011;10442;49.932;11.592;2022-09-20T15:09:07;2.08;;;1.23;;
20567;SDS011;10442;49.932;11.592;2022-09-20T15:11:38;2.95;;;1.30;;
20567;SDS011;10442;49.932;11.592;2022-09-20T15:14:06;1.10;;;1.00;;
20567;SDS011;10442;49.932;11.592;2022-09-20T15:16:34;1.55;;;1.20;;
20567;SDS011;10442;49.932;11.592;2022-09-20T15:19:02;0.77;;;0.77;;
20567;SDS011;10442;49.932;11.592;2022-09-20T15:21:32;1.52;;;1.00;;
20567;SDS011;10442;49.932;11.592;2022-09-20T15:23:59;0.85;;;0.82;;
20567;SDS011;10442;49.932;11.592;2022-09-20T15:26:27;0.73;;;0.73;;
20567;SDS011;10442;49.932;11.592;2022-09-20T15:28:55;1.27;;;0.88;;
20567;SDS011;10442;49.932;11.592;2022-09-20T15:31:22;1.20;;;0.90;;
20567;SDS011;10442;49.932;11.592;2022-09-20T15:33:50;0.65;;;0.65;;
20567;SDS011;10442;49.932;11.592;2022-09-20T15:36:17;1.00;;;0.85;;
20567;SDS011;10442;49.932;11.592;2022-09-20T15:38:45;0.70;;;0.70;;
20567;SDS011;10442;49.932;11.592;2022-09-20T15:41:13;1.17;;;1.00;;
20567;SDS011;10442;49.932;11.592;2022-09-20T15:43:40;0.52;;;0.50;;
20567;SDS011;10442;49.932;11.592;2022-09-20T15:46:15;0.85;;;0.85;;
20567;SDS011;10442;49.932;11.592;2022-09-20T15:48:48;0.98;;;0.98;;
20567;SDS011;10442;49.932;11.592;2022-09-20T15:51:15;0.70;;;0.70;;
20567;SDS011;10442;49.932;11.592;2022-09-20T15:56:21;0.95;;;0.57;;
20567;SDS011;10442;49.932;11.592;2022-09-20T15:58:50;2.97;;;1.17;;
20567;SDS011;10442;49.932;11.592;2022-09-20T16:01:31;0.55;;;0.55;;
20567;SDS011;10442;49.932;11.592;2022-09-20T16:03:59;1.50;;;0.80;;
20567;SDS011;10442;49.932;11.592;2022-09-20T16:06:32;1.00;;;0.73;;
20567;SDS011;10442;49.932;11.592;2022-09-20T16:09:00;0.82;;;0.68;;
20567;SDS011;10442;49.932;11.592;2022-09-20T16:11:28;0.73;;;0.73;;
20567;SDS011;10442;49.932;11.592;2022-09-20T16:13:56;1.17;;;0.93;;
20567;SDS011;10442;49.932;11.592;2022-09-20T16:16:25;2.42;;;0.80;;
20567;SDS011;10442;49.932;11.592;2022-09-20T16:18:55;1.42;;;0.77;;
20567;SDS011;10442;49.932;11.592;2022-09-20T16:21:42;0.82;;;0.82;;
20567;SDS011;10442;49.932;11.592;2022-09-20T16:24:21;1.27;;;0.70;;
20567;SDS011;10442;49.932;11.592;2022-09-20T16:26:50;2.15;;;0.80;;
20567;SDS011;10442;49.932;11.592;2022-09-20T16:29:18;0.60;;;0.60;;
20567;SDS011;10442;49.932;11.592;2022-09-20T16:31:48;0.95;;;0.95;;
20567;SDS011;10442;49.932;11.592;2022-09-20T16:34:17;1.23;;;1.13;;
20567;SDS011;10442;49.932;11.592;2022-09-20T16:36:47;1.65;;;1.55;;
20567;SDS011;10442;49.932;11.592;2022-09-20T16:39:20;1.80;;;1.58;;
20567;SDS011;10442;49.932;11.592;2022-09-20T16:41:58;1.48;;;1.38;;
20567;SDS011;10442;49.932;11.592;2022-09-20T16:44:31;1.33;;;1.23;;
20567;SDS011;10442;49.932;11.592;2022-09-20T16:47:00;3.03;;;1.00;;
20567;SDS011;10442;49.932;11.592;2022-09-20T16:49:29;1.23;;;1.20;;
20567;SDS011;10442;49.932;11.592;2022-09-20T16:51:56;0.77;;;0.77;;
20567;SDS011;10442;49.932;11.592;2022-09-20T16:54:23;4.65;;;1.30;;
20567;SDS011;10442;49.932;11.592;2022-09-20T16:56:57;0.90;;;0.90;;
20567;SDS011;10442;49.932;11.592;2022-09-20T16:59:25;1.00;;;1.00;;
20567;SDS011;10442;49.932;11.592;2022-09-20T17:01:52;1.48;;;1.27;;
20567;SDS011;10442;49.932;11.592;2022-09-20T17:04:20;1.42;;;0.90;;
20567;SDS011;10442;49.932;11.592;2022-09-20T17:06:49;0.80;;;0.80;;
20567;SDS011;10442;49.932;11.592;2022-09-20T17:09:17;1.15;;;1.10;;
20567;SDS011;10442;49.932;11.592;2022-09-20T17:11:46;1.10;;;1.00;;
20567;SDS011;10442;49.932;11.592;2022-09-20T17:14:19;0.93;;;0.90;;
20567;SDS011;10442;49.932;11.592;2022-09-20T17:16:47;1.58;;;1.20;;
20567;SDS011;10442;49.932;11.592;2022-09-20T17:19:16;1.73;;;1.02;;
20567;SDS011;10442;49.932;11.592;2022-09-20T17:21:45;1.77;;;1.20;;
20567;SDS011;10442;49.932;11.592;2022-09-20T17:24:18;1.45;;;1.15;;
20567;SDS011;10442;49.932;11.592;2022-09-20T17:26:46;1.35;;;1.25;;
20567;SDS011;10442;49.932;11.592;2022-09-20T17:29:16;0.95;;;0.95;;
20567;SDS011;10442;49.932;11.592;2022-09-20T17:31:45;0.98;;;0.88;;
20567;SDS011;10442;49.932;11.592;2022-09-20T17:34:21;1.45;;;1.35;;
20567;SDS011;10442;49.932;11.592;2022-09-20T17:36:49;1.20;;;1.10;;
20567;SDS011;10442;49.932;11.592;2022-09-20T17:39:17;0.93;;;0.93;;
20567;SDS011;10442;49.932;11.592;2022-09-20T17:41:45;2.67;;;1.33;;
20567;SDS011;10442;49.932;11.592;2022-09-20T17:44:14;1.33;;;1.05;;
20567;SDS011;10442;49.932;11.592;2022-09-20T17:46:43;0.80;;;0.80;;
20567;SDS011;10442;49.932;11.592;2022-09-20T17:49:13;1.23;;;1.13;;
20567;SDS011;10442;49.932;11.592;2022-09-20T17:51:43;1.10;;;1.10;;
20567;SDS011;10442;49.932;11.592;2022-09-20T17:54:12;1.98;;;1.88;;
20567;SDS011;10442;49.932;11.592;2022-09-20T17:56:41;1.95;;;1.85;;
20567;SDS011;10442;49.932;11.592;2022-09-20T17:59:09;3.92;;;2.25;;
20567;SDS011;10442;49.932;11.592;2022-09-20T18:01:38;2.40;;;2.28;;
20567;SDS011;10442;49.932;11.592;2022-09-20T18:04:07;2.78;;;2.58;;
20567;SDS011;10442;49.932;11.592;2022-09-20T18:06:36;2.45;;;2.20;;
20567;SDS011;10442;49.932;11.592;2022-09-20T18:09:05;2.03;;;1.92;;
20567;SDS011;10442;49.932;11.592;2022-09-20T18:11:38;4.80;;;2.22;;
20567;SDS011;10442;49.932;11.592;2022-09-20T18:14:18;2.58;;;1.70;;
20567;SDS011;10442;49.932;11.592;2022-09-20T18:16:50;1.65;;;1.40;;
20567;SDS011;10442;49.932;11.592;2022-09-20T18:19:18;1.08;;;1.08;;
20567;SDS011;10442;49.932;11.592;2022-09-20T18:21:48;1.30;;;1.00;;
20567;SDS011;10442;49.932;11.592;2022-09-20T18:24:16;2.35;;;1.50;;
20567;SDS011;10442;49.932;11.592;2022-09-20T18:26:43;2.38;;;1.50;;
20567;SDS011;10442;49.932;11.592;2022-09-20T18:29:12;3.03;;;1.70;;
20567;SDS011;10442;49.932;11.592;2022-09-20T18:34:15;2.70;;;2.33;;
20567;SDS011;10442;49.932;11.592;2022-09-20T18:36:45;3.20;;;2.70;;
20567;SDS011;10442;49.932;11.592;2022-09-20T18:39:23;5.05;;;2.55;;
20567;SDS011;10442;49.932;11.592;2022-09-20T18:41:54;2.50;;;2.17;;
20567;SDS011;10442;49.932;11.592;2022-09-20T18:44:23;2.50;;;2.30;;
20567;SDS011;10442;49.932;11.592;2022-09-20T18:46:52;2.95;;;2.40;;
20567;SDS011;10442;49.932;11.592;2022-09-20T18:49:20;2.43;;;2.17;;
20567;SDS011;10442;49.932;11.592;2022-09-20T18:51:48;2.43;;;2.00;;
20567;SDS011;10442;49.932;11.592;2022-09-20T18:54:16;2.20;;;2.10;;
20567;SDS011;10442;49.932;11.592;2022-09-20T18:56:45;1.65;;;1.55;;
20567;SDS011;10442;49.932;11.592;2022-09-20T19:01:52;2.83;;;2.20;;
20567;SDS011;10442;49.932;11.592;2022-09-20T19:09:58;2.47;;;2.27;;
20567;SDS011;10442;49.932;11.592;2022-09-20T19:15:32;3.00;;;2.80;;
20567;SDS011;10442;49.932;11.592;2022-09-20T19:27:06;4.67;;;2.43;;
20567;SDS011;10442;49.932;11.592;2022-09-20T19:29:37;2.17;;;1.83;;
20567;SDS011;10442;49.932;11.592;2022-09-20T19:32:05;1.93;;;1.83;;
20567;SDS011;10442;49.932;11.592;2022-09-20T19:34:42;3.30;;;1.70;;
20567;SDS011;10442;49.932;11.592;2022-09-20T19:50:43;3.93;;;3.57;;
20567;SDS011;10442;49.932;11.592;2022-09-20T19:53:13;4.93;;;3.77;;
20567;SDS011;10442;49.932;11.592;2022-09-20T19:55:45;5.80;;;4.03;;
20567;SDS011;10442;49.932;11.592;2022-09-20T19:58:13;3.63;;;3.33;;
20567;SDS011;10442;49.932;11.592;2022-09-20T20:00:42;4.17;;;3.77;;
20567;SDS011;10442;49.932;11.592;2022-09-20T20:03:11;5.00;;;4.60;;
20567;SDS011;10442;49.932;11.592;2022-09-20T20:05:58;7.93;;;4.53;;
20567;SDS011;10442;49.932;11.592;2022-09-20T20:08:41;5.43;;;3.63;;
20567;SDS011;10442;49.932;11.592;2022-09-20T20:11:19;3.93;;;3.63;;
20567;SDS011;10442;49.932;11.592;2022-09-20T20:14:17;3.60;;;3.17;;
20567;SDS011;10442;49.932;11.592;2022-09-20T20:17:11;3.00;;;2.70;;
20567;SDS011;10442;49.932;11.592;2022-09-20T20:28:07;2.73;;;2.53;;
20567;SDS011;10442;49.932;11.592;2022-09-20T20:30:35;2.90;;;2.70;;
20567;SDS011;10442;49.932;11.592;2022-09-20T20:33:02;4.57;;;4.17;;
20567;SDS011;10442;49.932;11.592;2022-09-20T20:35:31;3.23;;;3.03;;
20567;SDS011;10442;49.932;11.592;2022-09-20T20:37:59;3.97;;;3.67;;
20567;SDS011;10442;49.932;11.592;2022-09-20T20:40:26;4.17;;;3.07;;
20567;SDS011;10442;49.932;11.592;2022-09-20T20:42:55;4.53;;;2.77;;